sensor_id;sensor_type;location;lat;lon;timestamp;temperature;humidity
9305;DHT22;4690;52.422;13.486;2022-09-09T00:06:21;14.10;99.90
9305;DHT22;4690;52.422;13.486;2022-09-09T00:12:01;14.10;99.90
9305;DHT22;4690;52.422;13.486;2022-09-09T00:14:48;14.10;99.90
9305;DHT22;4690;52.422;13.486;2022-09-09T00:17:38;14.00;99.90
9305;DHT22;4690;52.422;13.486;2022-09-09T00:26:29;14.00;99.90
9305;DHT22;4690;52.422;13.486;2022-09-09T00:32:16;13.90;99.90
9305;DHT22;4690;52.422;13.486;2022-09-09T00:35:11;13.90;99.90
9305;DHT22;4690;52.422;13.486;2022-09-09T00:37:45;13.80;99.90
9305;DHT22;4690;52.422;13.486;2022-09-09T00:40:27;13.80;99.90
9305;DHT22;4690;52.422;13.486;2022-09-09T00:43:28;13.80;99.90
9305;DHT22;4690;52.422;13.486;2022-09-09T00:57:34;13.60;99.90
9305;DHT22;4690;52.422;13.486;2022-09-09T01:05:49;13.60;99.90
9305;DHT22;4690;52.422;13.486;2022-09-09T01:12:06;13.50;99.90
9305;DHT22;4690;52.422;13.486;2022-09-09T01:14:48;13.50;99.90
9305;DHT22;4690;52.422;13.486;2022-09-09T01:17:21;13.50;99.90
9305;DHT22;4690;52.422;13.486;2022-09-09T01:20:02;13.40;99.90
9305;DHT22;4690;52.422;13.486;2022-09-09T01:22:44;13.40;99.90
9305;DHT22;4690;52.422;13.486;2022-09-09T01:28:50;13.30;99.90
9305;DHT22;4690;52.422;13.486;2022-09-09T01:31:37;13.40;99.90
9305;DHT22;4690;52.422;13.486;2022-09-09T01:34:18;13.30;99.90
9305;DHT22;4690;52.422;13.486;2022-09-09T01:37:03;13.30;99.90
9305;DHT22;4690;52.422;13.486;2022-09-09T01:39:35;13.30;99.90
9305;DHT22;4690;52.422;13.486;2022-09-09T01:42:05;13.30;99.90
9305;DHT22;4690;52.422;13.486;2022-09-09T01:44:34;13.40;99.90
9305;DHT22;4690;52.422;13.486;2022-09-09T01:47:02;13.40;99.90
9305;DHT22;4690;52.422;13.486;2022-09-09T01:49:28;13.30;99.90
9305;DHT22;4690;52.422;13.486;2022-09-09T01:51:56;13.30;99.90
9305;DHT22;4690;52.422;13.486;2022-09-09T01:54:27;13.30;99.90
9305;DHT22;4690;52.422;13.486;2022-09-09T01:59:48;13.20;99.90
9305;DHT22;4690;52.422;13.486;2022-09-09T02:02:35;13.10;99.90
9305;DHT22;4690;52.422;13.486;2022-09-09T02:08:26;13.10;99.90
9305;DHT22;4690;52.422;13.486;2022-09-09T02:11:06;13.10;99.90
9305;DHT22;4690;52.422;13.486;2022-09-09T02:13:41;13.10;99.90
9305;DHT22;4690;52.422;13.486;2022-09-09T02:19:32;13.10;99.90
9305;DHT22;4690;52.422;13.486;2022-09-09T02:21:59;13.10;99.90
9305;DHT22;4690;52.422;13.486;2022-09-09T02:24:27;13.10;99.90
9305;DHT22;4690;52.422;13.486;2022-09-09T02:26:57;13.10;99.90
9305;DHT22;4690;52.422;13.486;2022-09-09T02:29:30;13.20;99.90
9305;DHT22;4690;52.422;13.486;2022-09-09T02:32:02;13.10;99.90
9305;DHT22;4690;52.422;13.486;2022-09-09T02:34:34;13.10;99.90
9305;DHT22;4690;52.422;13.486;2022-09-09T02:37:08;13.10;99.90
9305;DHT22;4690;52.422;13.486;2022-09-09T02:39:36;13.10;99.90
9305;DHT22;4690;52.422;13.486;2022-09-09T02:42:03;13.10;99.90
9305;DHT22;4690;52.422;13.486;2022-09-09T02:44:30;13.10;99.90
9305;DHT22;4690;52.422;13.486;2022-09-09T02:50:04;13.10;99.90
9305;DHT22;4690;52.422;13.486;2022-09-09T02:53:06;13.10;99.90
9305;DHT22;4690;52.422;13.486;2022-09-09T02:55:55;13.10;99.90
9305;DHT22;4690;52.422;13.486;2022-09-09T02:58:26;13.10;99.90
9305;DHT22;4690;52.422;13.486;2022-09-09T03:00:53;13.10;99.90
9305;DHT22;4690;52.422;13.486;2022-09-09T03:03:19;13.10;99.90
9305;DHT22;4690;52.422;13.486;2022-09-09T03:05:46;13.20;99.90
9305;DHT22;4690;52.422;13.486;2022-09-09T03:08:12;13.10;99.90
9305;DHT22;4690;52.422;13.486;2022-09-09T03:10:38;13.10;99.90
9305;DHT22;4690;52.422;13.486;2022-09-09T03:13:05;13.00;99.90
9305;DHT22;4690;52.422;13.486;2022-09-09T03:15:32;13.00;99.90
9305;DHT22;4690;52.422;13.486;2022-09-09T03:17:58;13.00;99.90
9305;DHT22;4690;52.422;13.486;2022-09-09T03:20:27;13.00;99.90
9305;DHT22;4690;52.422;13.486;2022-09-09T03:22:54;13.00;99.90
9305;DHT22;4690;52.422;13.486;2022-09-09T03:25:21;13.00;99.90
9305;DHT22;4690;52.422;13.486;2022-09-09T03:27:52;13.00;99.90
9305;DHT22;4690;52.422;13.486;2022-09-09T03:30:24;13.00;99.90
9305;DHT22;4690;52.422;13.486;2022-09-09T03:32:52;12.90;99.90
9305;DHT22;4690;52.422;13.486;2022-09-09T03:35:18;12.90;99.90
9305;DHT22;4690;52.422;13.486;2022-09-09T03:37:44;12.90;99.90
9305;DHT22;4690;52.422;13.486;2022-09-09T03:40:10;13.00;99.90
9305;DHT22;4690;52.422;13.486;2022-09-09T03:42:37;12.90;99.90
9305;DHT22;4690;52.422;13.486;2022-09-09T03:45:04;12.90;99.90
9305;DHT22;4690;52.422;13.486;2022-09-09T03:47:34;13.00;99.90
9305;DHT22;4690;52.422;13.486;2022-09-09T03:50:00;12.90;99.90
9305;DHT22;4690;52.422;13.486;2022-09-09T03:52:25;13.00;99.90
9305;DHT22;4690;52.422;13.486;2022-09-09T03:54:53;13.00;99.90
9305;DHT22;4690;52.422;13.486;2022-09-09T03:57:19;12.90;99.90
9305;DHT22;4690;52.422;13.486;2022-09-09T03:59:46;13.00;99.90
9305;DHT22;4690;52.422;13.486;2022-09-09T04:02:12;12.90;99.90
9305;DHT22;4690;52.422;13.486;2022-09-09T04:04:38;12.90;99.90
9305;DHT22;4690;52.422;13.486;2022-09-09T04:07:04;12.80;99.90
9305;DHT22;4690;52.422;13.486;2022-09-09T04:09:32;12.80;99.90
9305;DHT22;4690;52.422;13.486;2022-09-09T04:11:58;12.80;99.90
9305;DHT22;4690;52.422;13.486;2022-09-09T04:14:24;12.70;99.90
9305;DHT22;4690;52.422;13.486;2022-09-09T04:16:54;12.70;99.90
9305;DHT22;4690;52.422;13.486;2022-09-09T04:19:21;12.70;99.90
9305;DHT22;4690;52.422;13.486;2022-09-09T04:21:47;12.70;99.90
9305;DHT22;4690;52.422;13.486;2022-09-09T04:24:15;12.70;99.90
9305;DHT22;4690;52.422;13.486;2022-09-09T04:26:41;12.60;99.90
9305;DHT22;4690;52.422;13.486;2022-09-09T04:29:07;12.60;99.90
9305;DHT22;4690;52.422;13.486;2022-09-09T04:31:33;12.70;99.90
9305;DHT22;4690;52.422;13.486;2022-09-09T04:33:59;12.70;99.90
9305;DHT22;4690;52.422;13.486;2022-09-09T04:36:30;12.60;99.90
9305;DHT22;4690;52.422;13.486;2022-09-09T04:38:59;12.70;99.90
9305;DHT22;4690;52.422;13.486;2022-09-09T04:41:25;12.60;99.90
9305;DHT22;4690;52.422;13.486;2022-09-09T04:43:50;12.60;99.90
9305;DHT22;4690;52.422;13.486;2022-09-09T04:46:19;12.60;99.90
9305;DHT22;4690;52.422;13.486;2022-09-09T04:48:45;12.60;99.90
9305;DHT22;4690;52.422;13.486;2022-09-09T04:51:13;12.60;99.90
9305;DHT22;4690;52.422;13.486;2022-09-09T04:53:39;12.60;99.90
9305;DHT22;4690;52.422;13.486;2022-09-09T04:58:37;12.70;99.90
9305;DHT22;4690;52.422;13.486;2022-09-09T05:01:15;12.70;99.90
9305;DHT22;4690;52.422;13.486;2022-09-09T05:03:43;12.70;99.90
9305;DHT22;4690;52.422;13.486;2022-09-09T05:06:15;12.80;99.90
9305;DHT22;4690;52.422;13.486;2022-09-09T05:08:43;12.80;99.90
9305;DHT22;4690;52.422;13.486;2022-09-09T05:11:17;12.90;99.90
9305;DHT22;4690;52.422;13.486;2022-09-09T05:13:45;12.90;99.90
9305;DHT22;4690;52.422;13.486;2022-09-09T05:16:12;13.00;99.90
9305;DHT22;4690;52.422;13.486;2022-09-09T05:18:39;13.00;99.90
9305;DHT22;4690;52.422;13.486;2022-09-09T05:21:07;13.00;99.90
9305;DHT22;4690;52.422;13.486;2022-09-09T05:23:33;13.10;99.90
9305;DHT22;4690;52.422;13.486;2022-09-09T05:26:00;13.20;99.90
9305;DHT22;4690;52.422;13.486;2022-09-09T05:28:27;13.20;99.90
9305;DHT22;4690;52.422;13.486;2022-09-09T05:31:00;13.30;99.90
9305;DHT22;4690;52.422;13.486;2022-09-09T05:33:33;13.30;99.90
9305;DHT22;4690;52.422;13.486;2022-09-09T05:36:06;13.40;99.90
9305;DHT22;4690;52.422;13.486;2022-09-09T05:38:39;13.50;99.90
9305;DHT22;4690;52.422;13.486;2022-09-09T05:41:06;13.60;99.90
9305;DHT22;4690;52.422;13.486;2022-09-09T05:43:33;13.60;99.90
9305;DHT22;4690;52.422;13.486;2022-09-09T05:46:01;13.70;99.90
9305;DHT22;4690;52.422;13.486;2022-09-09T05:48:38;13.90;99.90
9305;DHT22;4690;52.422;13.486;2022-09-09T05:51:09;14.00;99.90
9305;DHT22;4690;52.422;13.486;2022-09-09T05:53:41;14.10;99.90
9305;DHT22;4690;52.422;13.486;2022-09-09T05:56:16;14.10;99.90
9305;DHT22;4690;52.422;13.486;2022-09-09T05:58:44;14.20;99.90
9305;DHT22;4690;52.422;13.486;2022-09-09T06:01:20;14.20;99.90
9305;DHT22;4690;52.422;13.486;2022-09-09T06:03:54;14.40;99.90
9305;DHT22;4690;52.422;13.486;2022-09-09T06:06:25;14.40;99.90
9305;DHT22;4690;52.422;13.486;2022-09-09T06:08:54;14.40;99.90
9305;DHT22;4690;52.422;13.486;2022-09-09T06:11:27;14.50;99.90
9305;DHT22;4690;52.422;13.486;2022-09-09T06:13:56;14.50;99.90
9305;DHT22;4690;52.422;13.486;2022-09-09T06:16:24;14.60;99.90
9305;DHT22;4690;52.422;13.486;2022-09-09T06:18:52;14.80;99.90
9305;DHT22;4690;52.422;13.486;2022-09-09T06:21:27;14.80;99.90
9305;DHT22;4690;52.422;13.486;2022-09-09T06:23:56;14.80;99.90
9305;DHT22;4690;52.422;13.486;2022-09-09T06:26:24;14.90;99.90
9305;DHT22;4690;52.422;13.486;2022-09-09T06:28:52;15.00;99.90
9305;DHT22;4690;52.422;13.486;2022-09-09T06:31:21;15.10;99.90
9305;DHT22;4690;52.422;13.486;2022-09-09T06:33:50;15.20;99.90
9305;DHT22;4690;52.422;13.486;2022-09-09T06:36:25;15.40;99.90
9305;DHT22;4690;52.422;13.486;2022-09-09T06:38:53;15.20;99.90
9305;DHT22;4690;52.422;13.486;2022-09-09T06:41:20;15.20;99.90
9305;DHT22;4690;52.422;13.486;2022-09-09T06:43:48;15.50;99.90
9305;DHT22;4690;52.422;13.486;2022-09-09T06:46:19;15.70;99.90
9305;DHT22;4690;52.422;13.486;2022-09-09T06:48:52;15.90;99.90
9305;DHT22;4690;52.422;13.486;2022-09-09T06:51:22;16.00;99.90
9305;DHT22;4690;52.422;13.486;2022-09-09T06:53:54;15.90;99.90
9305;DHT22;4690;52.422;13.486;2022-09-09T06:56:24;16.00;99.90
9305;DHT22;4690;52.422;13.486;2022-09-09T06:58:54;16.30;99.90
9305;DHT22;4690;52.422;13.486;2022-09-09T07:01:27;16.20;99.90
9305;DHT22;4690;52.422;13.486;2022-09-09T07:03:56;16.50;99.90
9305;DHT22;4690;52.422;13.486;2022-09-09T07:06:27;16.90;99.90
9305;DHT22;4690;52.422;13.486;2022-09-09T07:08:56;16.90;99.90
9305;DHT22;4690;52.422;13.486;2022-09-09T07:11:26;16.70;99.90
9305;DHT22;4690;52.422;13.486;2022-09-09T07:13:54;16.70;99.90
9305;DHT22;4690;52.422;13.486;2022-09-09T07:16:21;16.70;99.90
9305;DHT22;4690;52.422;13.486;2022-09-09T07:18:50;16.60;99.90
9305;DHT22;4690;52.422;13.486;2022-09-09T07:21:16;16.70;99.90
9305;DHT22;4690;52.422;13.486;2022-09-09T07:23:43;16.90;99.90
9305;DHT22;4690;52.422;13.486;2022-09-09T07:26:14;17.20;99.90
9305;DHT22;4690;52.422;13.486;2022-09-09T07:28:42;17.10;99.90
9305;DHT22;4690;52.422;13.486;2022-09-09T07:31:17;17.00;99.90
9305;DHT22;4690;52.422;13.486;2022-09-09T07:33:48;17.10;99.90
9305;DHT22;4690;52.422;13.486;2022-09-09T07:36:18;17.10;99.90
9305;DHT22;4690;52.422;13.486;2022-09-09T07:38:51;17.20;99.90
9305;DHT22;4690;52.422;13.486;2022-09-09T07:41:29;17.50;99.90
9305;DHT22;4690;52.422;13.486;2022-09-09T07:43:59;17.20;99.90
9305;DHT22;4690;52.422;13.486;2022-09-09T07:46:29;17.40;99.90
9305;DHT22;4690;52.422;13.486;2022-09-09T07:48:56;17.60;99.90
9305;DHT22;4690;52.422;13.486;2022-09-09T07:51:26;17.70;99.90
9305;DHT22;4690;52.422;13.486;2022-09-09T07:53:59;17.70;99.90
9305;DHT22;4690;52.422;13.486;2022-09-09T07:56:28;17.60;99.90
9305;DHT22;4690;52.422;13.486;2022-09-09T07:58:56;17.70;99.90
9305;DHT22;4690;52.422;13.486;2022-09-09T08:01:35;17.70;99.90
9305;DHT22;4690;52.422;13.486;2022-09-09T08:04:16;17.60;99.90
9305;DHT22;4690;52.422;13.486;2022-09-09T08:06:49;17.80;99.90
9305;DHT22;4690;52.422;13.486;2022-09-09T08:09:18;18.20;99.90
9305;DHT22;4690;52.422;13.486;2022-09-09T08:11:45;18.70;99.90
9305;DHT22;4690;52.422;13.486;2022-09-09T08:14:11;18.60;99.90
9305;DHT22;4690;52.422;13.486;2022-09-09T08:16:43;18.60;99.90
9305;DHT22;4690;52.422;13.486;2022-09-09T08:19:10;18.70;99.90
9305;DHT22;4690;52.422;13.486;2022-09-09T08:21:38;18.60;99.90
9305;DHT22;4690;52.422;13.486;2022-09-09T08:24:06;18.90;99.90
9305;DHT22;4690;52.422;13.486;2022-09-09T08:26:44;19.20;99.90
9305;DHT22;4690;52.422;13.486;2022-09-09T08:29:13;19.40;99.90
9305;DHT22;4690;52.422;13.486;2022-09-09T08:31:45;19.60;99.90
9305;DHT22;4690;52.422;13.486;2022-09-09T08:34:12;19.30;99.90
9305;DHT22;4690;52.422;13.486;2022-09-09T08:36:43;19.10;99.90
9305;DHT22;4690;52.422;13.486;2022-09-09T08:39:11;18.80;99.90
9305;DHT22;4690;52.422;13.486;2022-09-09T08:41:57;18.60;99.90
9305;DHT22;4690;52.422;13.486;2022-09-09T08:50:29;18.30;99.90
9305;DHT22;4690;52.422;13.486;2022-09-09T08:53:12;18.20;99.90
9305;DHT22;4690;52.422;13.486;2022-09-09T08:55:58;18.20;99.90
9305;DHT22;4690;52.422;13.486;2022-09-09T08:58:28;18.30;99.90
9305;DHT22;4690;52.422;13.486;2022-09-09T09:06:49;18.70;99.90
9305;DHT22;4690;52.422;13.486;2022-09-09T09:09:43;18.80;99.90
9305;DHT22;4690;52.422;13.486;2022-09-09T09:12:22;19.00;99.90
9305;DHT22;4690;52.422;13.486;2022-09-09T09:14:51;18.90;99.90
9305;DHT22;4690;52.422;13.486;2022-09-09T09:17:18;18.70;99.90
9305;DHT22;4690;52.422;13.486;2022-09-09T09:19:47;18.90;99.90
9305;DHT22;4690;52.422;13.486;2022-09-09T09:22:21;19.30;99.90
9305;DHT22;4690;52.422;13.486;2022-09-09T09:33:27;20.00;99.90
9305;DHT22;4690;52.422;13.486;2022-09-09T09:35:56;20.40;99.90
9305;DHT22;4690;52.422;13.486;2022-09-09T09:38:26;20.50;99.90
9305;DHT22;4690;52.422;13.486;2022-09-09T09:40:57;20.80;99.90
9305;DHT22;4690;52.422;13.486;2022-09-09T09:43:28;20.60;99.90
9305;DHT22;4690;52.422;13.486;2022-09-09T09:45:58;20.60;99.90
9305;DHT22;4690;52.422;13.486;2022-09-09T09:48:26;20.70;99.90
9305;DHT22;4690;52.422;13.486;2022-09-09T09:50:54;20.80;99.90
9305;DHT22;4690;52.422;13.486;2022-09-09T09:53:39;21.00;99.90
9305;DHT22;4690;52.422;13.486;2022-09-09T09:56:08;21.10;99.90
9305;DHT22;4690;52.422;13.486;2022-09-09T09:58:56;20.90;99.90
9305;DHT22;4690;52.422;13.486;2022-09-09T10:01:24;20.80;99.90
9305;DHT22;4690;52.422;13.486;2022-09-09T10:04:13;20.70;99.90
9305;DHT22;4690;52.422;13.486;2022-09-09T10:06:44;20.60;99.90
9305;DHT22;4690;52.422;13.486;2022-09-09T10:09:25;20.50;99.90
9305;DHT22;4690;52.422;13.486;2022-09-09T10:12:23;20.80;99.90
9305;DHT22;4690;52.422;13.486;2022-09-09T10:15:31;21.10;99.90
9305;DHT22;4690;52.422;13.486;2022-09-09T10:24:56;20.90;99.90
9305;DHT22;4690;52.422;13.486;2022-09-09T10:36:45;21.30;99.90
9305;DHT22;4690;52.422;13.486;2022-09-09T10:39:37;21.10;99.90
9305;DHT22;4690;52.422;13.486;2022-09-09T10:42:12;21.00;99.90
9305;DHT22;4690;52.422;13.486;2022-09-09T10:44:53;20.90;99.90
9305;DHT22;4690;52.422;13.486;2022-09-09T10:48:08;21.00;99.90
9305;DHT22;4690;52.422;13.486;2022-09-09T10:51:02;21.10;99.90
9305;DHT22;4690;52.422;13.486;2022-09-09T10:53:42;21.20;99.90
9305;DHT22;4690;52.422;13.486;2022-09-09T10:56:20;21.50;99.90
9305;DHT22;4690;52.422;13.486;2022-09-09T10:59:00;22.10;99.90
9305;DHT22;4690;52.422;13.486;2022-09-09T11:01:37;22.60;99.90
9305;DHT22;4690;52.422;13.486;2022-09-09T11:04:33;22.70;99.90
9305;DHT22;4690;52.422;13.486;2022-09-09T11:07:08;23.20;99.90
9305;DHT22;4690;52.422;13.486;2022-09-09T11:09:49;23.00;99.90
9305;DHT22;4690;52.422;13.486;2022-09-09T11:12:21;23.00;99.90
9305;DHT22;4690;52.422;13.486;2022-09-09T11:14:59;22.80;99.90
9305;DHT22;4690;52.422;13.486;2022-09-09T11:17:39;22.70;99.90
9305;DHT22;4690;52.422;13.486;2022-09-09T11:20:13;22.80;99.90
9305;DHT22;4690;52.422;13.486;2022-09-09T11:22:59;23.30;99.90
9305;DHT22;4690;52.422;13.486;2022-09-09T11:25:52;23.30;99.90
9305;DHT22;4690;52.422;13.486;2022-09-09T11:31:45;23.60;99.90
9305;DHT22;4690;52.422;13.486;2022-09-09T11:34:39;23.90;99.90
9305;DHT22;4690;52.422;13.486;2022-09-09T11:40:23;24.10;99.90
9305;DHT22;4690;52.422;13.486;2022-09-09T11:43:15;24.10;99.90
9305;DHT22;4690;52.422;13.486;2022-09-09T11:45:52;23.70;99.90
9305;DHT22;4690;52.422;13.486;2022-09-09T11:48:41;23.00;99.90
9305;DHT22;4690;52.422;13.486;2022-09-09T11:51:13;22.60;99.90
9305;DHT22;4690;52.422;13.486;2022-09-09T11:56:32;23.10;99.90
9305;DHT22;4690;52.422;13.486;2022-09-09T12:01:34;23.10;99.90
9305;DHT22;4690;52.422;13.486;2022-09-09T12:04:12;23.50;99.90
9305;DHT22;4690;52.422;13.486;2022-09-09T12:06:46;23.70;99.90
9305;DHT22;4690;52.422;13.486;2022-09-09T12:11:51;23.50;99.90
9305;DHT22;4690;52.422;13.486;2022-09-09T12:14:37;23.70;99.90
9305;DHT22;4690;52.422;13.486;2022-09-09T12:17:23;23.70;99.90
9305;DHT22;4690;52.422;13.486;2022-09-09T12:20:12;23.20;99.90
9305;DHT22;4690;52.422;13.486;2022-09-09T12:29:16;22.60;99.90
9305;DHT22;4690;52.422;13.486;2022-09-09T12:32:09;22.50;99.90
9305;DHT22;4690;52.422;13.486;2022-09-09T12:34:51;22.70;99.90
9305;DHT22;4690;52.422;13.486;2022-09-09T12:40:17;22.90;99.90
9305;DHT22;4690;52.422;13.486;2022-09-09T12:42:44;23.00;99.90
9305;DHT22;4690;52.422;13.486;2022-09-09T12:45:24;23.00;99.90
9305;DHT22;4690;52.422;13.486;2022-09-09T12:48:07;23.10;99.90
9305;DHT22;4690;52.422;13.486;2022-09-09T12:50:42;23.00;99.90
9305;DHT22;4690;52.422;13.486;2022-09-09T12:53:22;23.10;99.90
9305;DHT22;4690;52.422;13.486;2022-09-09T12:56:06;23.20;99.90
9305;DHT22;4690;52.422;13.486;2022-09-09T12:58:35;22.90;99.90
9305;DHT22;4690;52.422;13.486;2022-09-09T13:01:04;22.70;99.90
9305;DHT22;4690;52.422;13.486;2022-09-09T13:03:32;22.70;99.90
9305;DHT22;4690;52.422;13.486;2022-09-09T13:06:12;22.80;99.90
9305;DHT22;4690;52.422;13.486;2022-09-09T13:08:39;22.80;99.90
9305;DHT22;4690;52.422;13.486;2022-09-09T13:11:13;22.80;99.90
9305;DHT22;4690;52.422;13.486;2022-09-09T13:13:42;22.80;99.90
9305;DHT22;4690;52.422;13.486;2022-09-09T13:16:41;22.70;99.90
9305;DHT22;4690;52.422;13.486;2022-09-09T13:19:14;22.60;99.90
9305;DHT22;4690;52.422;13.486;2022-09-09T13:21:42;22.50;99.90
9305;DHT22;4690;52.422;13.486;2022-09-09T13:24:40;22.50;99.90
9305;DHT22;4690;52.422;13.486;2022-09-09T13:27:30;22.40;99.90
9305;DHT22;4690;52.422;13.486;2022-09-09T13:30:24;22.40;99.90
9305;DHT22;4690;52.422;13.486;2022-09-09T13:33:20;22.40;99.90
9305;DHT22;4690;52.422;13.486;2022-09-09T13:35:55;22.40;99.90
9305;DHT22;4690;52.422;13.486;2022-09-09T13:38:23;22.40;99.90
9305;DHT22;4690;52.422;13.486;2022-09-09T13:41:09;22.30;99.90
9305;DHT22;4690;52.422;13.486;2022-09-09T13:43:54;22.30;99.90
9305;DHT22;4690;52.422;13.486;2022-09-09T13:46:25;22.30;99.90
9305;DHT22;4690;52.422;13.486;2022-09-09T13:51:42;22.10;99.90
9305;DHT22;4690;52.422;13.486;2022-09-09T13:54:14;22.00;99.90
9305;DHT22;4690;52.422;13.486;2022-09-09T13:56:42;22.00;99.90
9305;DHT22;4690;52.422;13.486;2022-09-09T13:59:17;21.90;99.90
9305;DHT22;4690;52.422;13.486;2022-09-09T14:01:45;21.90;99.90
9305;DHT22;4690;52.422;13.486;2022-09-09T14:04:11;21.80;99.90
9305;DHT22;4690;52.422;13.486;2022-09-09T14:06:38;21.80;99.90
9305;DHT22;4690;52.422;13.486;2022-09-09T14:09:06;21.90;99.90
9305;DHT22;4690;52.422;13.486;2022-09-09T14:11:33;21.80;99.90
9305;DHT22;4690;52.422;13.486;2022-09-09T14:13:59;21.70;99.90
9305;DHT22;4690;52.422;13.486;2022-09-09T14:16:26;21.60;99.90
9305;DHT22;4690;52.422;13.486;2022-09-09T14:18:53;21.60;99.90
9305;DHT22;4690;52.422;13.486;2022-09-09T14:21:18;21.50;99.90
9305;DHT22;4690;52.422;13.486;2022-09-09T14:23:44;21.50;99.90
9305;DHT22;4690;52.422;13.486;2022-09-09T14:26:10;21.50;99.90
9305;DHT22;4690;52.422;13.486;2022-09-09T14:28:36;21.50;99.90
9305;DHT22;4690;52.422;13.486;2022-09-09T14:31:03;21.60;99.90
9305;DHT22;4690;52.422;13.486;2022-09-09T14:33:30;21.70;99.90
9305;DHT22;4690;52.422;13.486;2022-09-09T14:35:57;21.70;99.90
9305;DHT22;4690;52.422;13.486;2022-09-09T14:38:35;21.60;99.90
9305;DHT22;4690;52.422;13.486;2022-09-09T14:41:05;21.60;99.90
9305;DHT22;4690;52.422;13.486;2022-09-09T14:43:32;21.40;99.90
9305;DHT22;4690;52.422;13.486;2022-09-09T14:46:07;21.40;99.90
9305;DHT22;4690;52.422;13.486;2022-09-09T14:48:35;21.40;99.90
9305;DHT22;4690;52.422;13.486;2022-09-09T14:51:10;21.30;99.90
9305;DHT22;4690;52.422;13.486;2022-09-09T14:53:45;21.40;99.90
9305;DHT22;4690;52.422;13.486;2022-09-09T14:56:17;21.50;99.90
9305;DHT22;4690;52.422;13.486;2022-09-09T14:58:44;21.40;99.90
9305;DHT22;4690;52.422;13.486;2022-09-09T15:01:16;21.40;99.90
9305;DHT22;4690;52.422;13.486;2022-09-09T15:03:49;21.30;99.90
9305;DHT22;4690;52.422;13.486;2022-09-09T15:06:16;21.30;99.90
9305;DHT22;4690;52.422;13.486;2022-09-09T15:08:44;21.20;99.90
9305;DHT22;4690;52.422;13.486;2022-09-09T15:11:12;21.20;99.90
9305;DHT22;4690;52.422;13.486;2022-09-09T15:13:39;21.20;99.90
9305;DHT22;4690;52.422;13.486;2022-09-09T15:16:13;21.20;99.90
9305;DHT22;4690;52.422;13.486;2022-09-09T15:18:41;21.30;99.90
9305;DHT22;4690;52.422;13.486;2022-09-09T15:21:11;21.40;99.90
9305;DHT22;4690;52.422;13.486;2022-09-09T15:23:39;21.60;99.90
9305;DHT22;4690;52.422;13.486;2022-09-09T15:26:05;21.70;99.90
9305;DHT22;4690;52.422;13.486;2022-09-09T15:28:36;21.60;99.90
9305;DHT22;4690;52.422;13.486;2022-09-09T15:31:12;21.70;99.90
9305;DHT22;4690;52.422;13.486;2022-09-09T15:33:53;21.60;99.90
9305;DHT22;4690;52.422;13.486;2022-09-09T15:39:08;21.60;99.90
9305;DHT22;4690;52.422;13.486;2022-09-09T15:41:38;21.50;99.90
9305;DHT22;4690;52.422;13.486;2022-09-09T15:44:05;21.60;99.90
9305;DHT22;4690;52.422;13.486;2022-09-09T15:46:33;21.70;99.90
9305;DHT22;4690;52.422;13.486;2022-09-09T15:51:45;21.70;99.90
9305;DHT22;4690;52.422;13.486;2022-09-09T15:54:18;21.70;99.90
9305;DHT22;4690;52.422;13.486;2022-09-09T15:56:46;21.80;99.90
9305;DHT22;4690;52.422;13.486;2022-09-09T15:59:15;22.00;99.90
9305;DHT22;4690;52.422;13.486;2022-09-09T16:01:41;22.00;99.90
9305;DHT22;4690;52.422;13.486;2022-09-09T16:04:09;22.00;99.90
9305;DHT22;4690;52.422;13.486;2022-09-09T16:06:36;22.00;99.90
9305;DHT22;4690;52.422;13.486;2022-09-09T16:09:04;21.90;99.90
9305;DHT22;4690;52.422;13.486;2022-09-09T16:11:35;21.90;99.90
9305;DHT22;4690;52.422;13.486;2022-09-09T16:14:03;21.90;99.90
9305;DHT22;4690;52.422;13.486;2022-09-09T16:16:30;21.90;99.90
9305;DHT22;4690;52.422;13.486;2022-09-09T16:19:03;21.90;99.90
9305;DHT22;4690;52.422;13.486;2022-09-09T16:21:34;21.80;99.90
9305;DHT22;4690;52.422;13.486;2022-09-09T16:24:06;21.70;99.90
9305;DHT22;4690;52.422;13.486;2022-09-09T16:26:35;21.60;99.90
9305;DHT22;4690;52.422;13.486;2022-09-09T16:29:03;21.60;99.90
9305;DHT22;4690;52.422;13.486;2022-09-09T16:31:29;21.50;99.90
9305;DHT22;4690;52.422;13.486;2022-09-09T16:33:57;21.50;99.90
9305;DHT22;4690;52.422;13.486;2022-09-09T16:36:26;21.40;99.90
9305;DHT22;4690;52.422;13.486;2022-09-09T16:38:58;21.30;99.90
9305;DHT22;4690;52.422;13.486;2022-09-09T16:41:27;21.20;99.90
9305;DHT22;4690;52.422;13.486;2022-09-09T16:43:55;21.00;99.90
9305;DHT22;4690;52.422;13.486;2022-09-09T16:46:45;20.90;99.90
9305;DHT22;4690;52.422;13.486;2022-09-09T16:49:14;20.60;99.90
9305;DHT22;4690;52.422;13.486;2022-09-09T16:51:49;20.60;99.90
9305;DHT22;4690;52.422;13.486;2022-09-09T16:54:18;20.60;99.90
9305;DHT22;4690;52.422;13.486;2022-09-09T16:56:46;20.50;99.90
9305;DHT22;4690;52.422;13.486;2022-09-09T16:59:18;20.40;99.90
9305;DHT22;4690;52.422;13.486;2022-09-09T17:01:47;20.20;99.90
9305;DHT22;4690;52.422;13.486;2022-09-09T17:04:18;20.20;99.90
9305;DHT22;4690;52.422;13.486;2022-09-09T17:06:50;20.10;99.90
9305;DHT22;4690;52.422;13.486;2022-09-09T17:09:18;20.00;99.90
9305;DHT22;4690;52.422;13.486;2022-09-09T17:11:46;19.90;99.90
9305;DHT22;4690;52.422;13.486;2022-09-09T17:14:15;19.90;99.90
9305;DHT22;4690;52.422;13.486;2022-09-09T17:16:43;19.80;99.90
9305;DHT22;4690;52.422;13.486;2022-09-09T17:19:09;19.70;99.90
9305;DHT22;4690;52.422;13.486;2022-09-09T17:21:36;19.70;99.90
9305;DHT22;4690;52.422;13.486;2022-09-09T17:24:02;19.60;99.90
9305;DHT22;4690;52.422;13.486;2022-09-09T17:26:31;19.60;99.90
9305;DHT22;4690;52.422;13.486;2022-09-09T17:28:59;19.50;99.90
9305;DHT22;4690;52.422;13.486;2022-09-09T17:31:27;19.40;99.90
9305;DHT22;4690;52.422;13.486;2022-09-09T17:33:54;19.30;99.90
9305;DHT22;4690;52.422;13.486;2022-09-09T17:36:32;19.30;99.90
9305;DHT22;4690;52.422;13.486;2022-09-09T17:39:00;19.30;99.90
9305;DHT22;4690;52.422;13.486;2022-09-09T17:41:27;19.20;99.90
9305;DHT22;4690;52.422;13.486;2022-09-09T17:43:56;19.10;99.90
9305;DHT22;4690;52.422;13.486;2022-09-09T17:46:37;19.00;99.90
9305;DHT22;4690;52.422;13.486;2022-09-09T17:49:07;18.90;99.90
9305;DHT22;4690;52.422;13.486;2022-09-09T17:51:38;18.80;99.90
9305;DHT22;4690;52.422;13.486;2022-09-09T17:54:10;18.80;99.90
9305;DHT22;4690;52.422;13.486;2022-09-09T17:56:37;18.70;99.90
9305;DHT22;4690;52.422;13.486;2022-09-09T17:59:06;18.60;99.90
9305;DHT22;4690;52.422;13.486;2022-09-09T18:01:34;18.50;99.90
9305;DHT22;4690;52.422;13.486;2022-09-09T18:04:04;18.50;99.90
9305;DHT22;4690;52.422;13.486;2022-09-09T18:06:37;18.50;99.90
9305;DHT22;4690;52.422;13.486;2022-09-09T18:09:06;18.30;99.90
9305;DHT22;4690;52.422;13.486;2022-09-09T18:11:37;18.20;99.90
9305;DHT22;4690;52.422;13.486;2022-09-09T18:14:09;18.20;99.90
9305;DHT22;4690;52.422;13.486;2022-09-09T18:16:40;18.20;99.90
9305;DHT22;4690;52.422;13.486;2022-09-09T18:19:08;18.10;99.90
9305;DHT22;4690;52.422;13.486;2022-09-09T18:21:39;18.00;99.90
9305;DHT22;4690;52.422;13.486;2022-09-09T18:24:07;17.80;99.90